createdAt,value
2023-03-16T00:01:41.857Z,2.53
2023-03-16T00:04:08.564Z,3.20
2023-03-16T00:06:36.695Z,3.40
2023-03-16T00:09:03.802Z,3.60
2023-03-16T00:11:30.731Z,2.73
2023-03-16T00:13:58.680Z,2.77
2023-03-16T00:16:25.260Z,2.00
2023-03-16T00:18:51.733Z,3.17
2023-03-16T00:21:18.107Z,2.27
2023-03-16T00:23:44.514Z,3.57
2023-03-16T00:26:13.157Z,3.47
2023-03-16T00:28:39.632Z,2.23
2023-03-16T00:31:07.177Z,2.63
2023-03-16T00:33:36.212Z,2.67
2023-03-16T00:36:03.767Z,3.13
2023-03-16T00:38:32.009Z,2.60
2023-03-16T00:40:58.429Z,2.40
2023-03-16T00:43:27.275Z,2.43
2023-03-16T00:46:06.742Z,3.10
2023-03-16T00:48:34.625Z,2.90
2023-03-16T00:51:06.350Z,2.50
2023-03-16T00:53:33.166Z,2.17
2023-03-16T00:55:59.815Z,2.60
2023-03-16T00:58:26.200Z,2.77
2023-03-16T01:00:54.117Z,2.47
2023-03-16T01:03:20.797Z,2.93
2023-03-16T01:05:47.999Z,2.87
2023-03-16T01:08:14.450Z,3.13
2023-03-16T01:10:40.930Z,2.70
2023-03-16T01:13:07.569Z,3.00
2023-03-16T01:15:34.885Z,2.53
2023-03-16T01:18:01.874Z,2.87
2023-03-16T01:20:28.518Z,2.43
2023-03-16T01:22:55.015Z,2.50
2023-03-16T01:25:21.370Z,3.53
2023-03-16T01:27:47.937Z,2.43
2023-03-16T01:30:14.268Z,3.37
2023-03-16T01:32:41.669Z,2.93
2023-03-16T01:35:09.308Z,3.27
2023-03-16T01:37:35.681Z,3.67
2023-03-16T01:40:02.299Z,2.70
2023-03-16T01:42:28.690Z,3.20
2023-03-16T01:44:56.419Z,2.80
2023-03-16T01:47:23.228Z,2.97
2023-03-16T01:49:51.002Z,3.07
2023-03-16T01:52:29.944Z,2.67
2023-03-16T01:54:58.506Z,2.50
2023-03-16T01:57:32.511Z,2.40
2023-03-16T02:00:20.078Z,3.38
2023-03-16T02:02:48.683Z,2.77
2023-03-16T02:05:23.156Z,3.03
2023-03-16T02:07:50.821Z,2.28
2023-03-16T02:10:18.720Z,2.87
2023-03-16T02:12:45.087Z,3.40
2023-03-16T02:15:13.918Z,3.00
2023-03-16T02:17:41.682Z,2.83
2023-03-16T02:20:26.935Z,3.70
2023-03-16T02:22:56.791Z,2.72
2023-03-16T02:25:24.579Z,2.33
2023-03-16T02:28:15.308Z,1.97
2023-03-16T02:30:41.680Z,4.00
2023-03-16T02:33:08.441Z,3.20
2023-03-16T02:35:34.816Z,3.40
2023-03-16T02:38:01.909Z,2.73
2023-03-16T02:40:29.815Z,2.33
2023-03-16T02:43:02.725Z,3.67
2023-03-16T02:45:33.870Z,3.00
2023-03-16T02:48:03.559Z,3.37
2023-03-16T02:50:30.020Z,3.20
2023-03-16T02:52:56.346Z,2.97
2023-03-16T02:55:22.702Z,3.27
2023-03-16T02:57:49.003Z,2.60
2023-03-16T03:00:17.909Z,2.63
2023-03-16T03:02:47.314Z,3.47
2023-03-16T03:05:13.702Z,2.83
2023-03-16T03:07:40.066Z,3.60
2023-03-16T03:10:07.110Z,3.20
2023-03-16T03:12:33.854Z,3.03
2023-03-16T03:15:00.207Z,3.00
2023-03-16T03:17:30.092Z,2.77
2023-03-16T03:20:00.112Z,2.50
2023-03-16T03:22:26.880Z,3.60
2023-03-16T03:24:53.457Z,3.37
2023-03-16T03:27:22.531Z,2.67
2023-03-16T03:29:48.961Z,4.23
2023-03-16T03:32:15.298Z,2.50
2023-03-16T03:34:42.486Z,2.80
2023-03-16T03:37:08.813Z,2.70
2023-03-16T03:39:35.314Z,4.40
2023-03-16T03:42:03.017Z,3.20
2023-03-16T03:44:29.402Z,3.83
2023-03-16T03:46:55.771Z,2.43
2023-03-16T03:49:22.102Z,3.43
2023-03-16T03:51:48.726Z,2.77
2023-03-16T03:54:15.028Z,2.93
2023-03-16T03:56:41.332Z,2.60
2023-03-16T03:59:07.661Z,2.70
2023-03-16T04:01:34.010Z,3.23
2023-03-16T04:04:00.596Z,2.80
2023-03-16T04:06:26.970Z,2.73
2023-03-16T04:08:54.305Z,2.70
2023-03-16T04:11:21.367Z,3.07
2023-03-16T04:13:47.681Z,4.63
2023-03-16T04:16:17.249Z,3.43
2023-03-16T04:18:45.129Z,2.93
2023-03-16T04:21:16.550Z,3.60
2023-03-16T04:23:43.201Z,3.27
2023-03-16T04:26:09.913Z,2.87
2023-03-16T04:28:36.241Z,2.93
2023-03-16T04:31:03.337Z,3.20
2023-03-16T04:33:29.747Z,3.10
2023-03-16T04:35:56.141Z,2.93
2023-03-16T04:38:22.461Z,2.60
2023-03-16T04:40:48.761Z,3.33
2023-03-16T04:43:15.109Z,2.80
2023-03-16T04:45:41.862Z,3.03
2023-03-16T04:48:10.392Z,2.87
2023-03-16T04:50:36.714Z,2.97
2023-03-16T04:53:04.586Z,3.43
2023-03-16T04:55:31.187Z,3.07
2023-03-16T04:57:57.963Z,3.83
2023-03-16T05:00:24.440Z,3.33
2023-03-16T05:02:54.187Z,3.33
2023-03-16T05:05:21.591Z,3.20
2023-03-16T05:07:48.418Z,3.60
2023-03-16T05:10:16.645Z,3.07
2023-03-16T05:12:42.982Z,2.70
2023-03-16T05:15:09.573Z,3.37
2023-03-16T05:17:35.874Z,3.23
2023-03-16T05:20:05.007Z,3.33
2023-03-16T05:22:31.307Z,2.67
2023-03-16T05:24:57.692Z,3.43
2023-03-16T05:27:24.649Z,2.87
2023-03-16T05:29:50.935Z,3.30
2023-03-16T05:32:17.225Z,2.50
2023-03-16T05:34:43.597Z,3.37
2023-03-16T05:37:10.057Z,2.87
2023-03-16T05:39:36.425Z,2.10
2023-03-16T05:42:02.720Z,1.87
2023-03-16T05:44:29.296Z,2.20
2023-03-16T05:46:55.674Z,2.50
2023-03-16T05:49:21.971Z,2.60
2023-03-16T05:51:49.998Z,2.80
2023-03-16T05:54:16.305Z,2.23
2023-03-16T05:56:42.615Z,3.13
2023-03-16T05:59:09.016Z,2.70
2023-03-16T06:01:35.342Z,2.13
2023-03-16T06:04:03.427Z,3.00
2023-03-16T06:06:29.761Z,3.90
2023-03-16T06:08:56.110Z,4.60
2023-03-16T06:11:22.414Z,4.07
2023-03-16T06:13:48.728Z,3.23
2023-03-16T06:16:16.842Z,3.93
2023-03-16T06:18:43.183Z,3.67
2023-03-16T06:21:09.550Z,4.33
2023-03-16T06:23:35.920Z,3.73
2023-03-16T06:26:02.308Z,4.13
2023-03-16T06:28:28.687Z,5.33
2023-03-16T06:30:56.078Z,3.93
2023-03-16T06:33:22.491Z,3.07
2023-03-16T06:35:49.847Z,4.40
2023-03-16T06:38:16.709Z,4.30
2023-03-16T06:40:43.017Z,4.30
2023-03-16T06:43:09.375Z,5.20
2023-03-16T06:45:36.060Z,4.33
2023-03-16T06:48:02.402Z,4.27
2023-03-16T06:50:29.245Z,4.57
2023-03-16T06:52:55.819Z,4.03
2023-03-16T06:55:22.126Z,4.13
2023-03-16T06:57:48.450Z,3.90
2023-03-16T07:00:15.545Z,5.10
2023-03-16T07:02:43.489Z,4.87
2023-03-16T07:05:13.307Z,2.73
2023-03-16T07:07:40.500Z,4.80
2023-03-16T07:10:06.949Z,3.93
2023-03-16T07:12:33.232Z,3.87
2023-03-16T07:14:59.521Z,4.90
2023-03-16T07:17:26.035Z,4.03
2023-03-16T07:19:52.450Z,4.53
2023-03-16T07:22:18.999Z,4.40
2023-03-16T07:24:45.310Z,3.70
2023-03-16T07:27:12.617Z,4.57
2023-03-16T07:29:39.070Z,3.60
2023-03-16T07:32:05.577Z,8.00
2023-03-16T07:34:31.934Z,6.80
2023-03-16T07:36:58.225Z,7.07
2023-03-16T07:39:24.513Z,6.03
2023-03-16T07:41:51.278Z,5.77
2023-03-16T07:44:17.666Z,7.03
2023-03-16T07:46:44.007Z,5.40
2023-03-16T07:49:10.738Z,4.80
2023-03-16T07:51:37.052Z,4.97
2023-03-16T07:54:04.357Z,4.27
2023-03-16T07:56:42.272Z,5.43
2023-03-16T07:59:14.035Z,4.90
2023-03-16T08:01:40.343Z,4.90
2023-03-16T08:04:06.736Z,6.80
2023-03-16T08:06:33.089Z,6.43
2023-03-16T08:09:00.139Z,4.33
2023-03-16T08:11:26.789Z,4.47
2023-03-16T08:13:56.637Z,5.67
2023-03-16T08:16:27.314Z,4.33
2023-03-16T08:18:56.067Z,4.67
2023-03-16T08:21:22.588Z,3.77
2023-03-16T08:23:51.991Z,4.47
2023-03-16T08:26:19.180Z,4.53
2023-03-16T08:28:46.295Z,4.77
2023-03-16T08:31:14.146Z,4.17
2023-03-16T08:33:41.330Z,3.70
2023-03-16T08:36:08.964Z,4.07
2023-03-16T08:38:35.354Z,4.27
2023-03-16T08:41:02.092Z,3.93
2023-03-16T08:43:28.413Z,4.27
2023-03-16T08:45:55.893Z,4.00
2023-03-16T08:48:22.270Z,3.70
2023-03-16T08:50:48.637Z,3.90
2023-03-16T08:53:15.174Z,3.97
2023-03-16T08:55:41.682Z,4.27
2023-03-16T08:58:08.422Z,4.40
2023-03-16T09:00:35.176Z,3.57
2023-03-16T09:03:02.749Z,3.80
2023-03-16T09:05:29.225Z,4.23
2023-03-16T09:07:55.542Z,3.77
2023-03-16T09:10:23.074Z,5.33
2023-03-16T09:12:50.237Z,3.37
2023-03-16T09:15:16.554Z,3.40
2023-03-16T09:17:44.983Z,2.80
2023-03-16T09:20:22.458Z,3.10
2023-03-16T09:22:52.121Z,3.20
2023-03-16T09:25:18.676Z,3.70
2023-03-16T09:27:45.171Z,3.33
2023-03-16T09:30:11.756Z,3.67
2023-03-16T09:32:38.226Z,4.40
2023-03-16T09:35:06.223Z,2.93
2023-03-16T09:37:44.619Z,2.40
2023-03-16T09:40:21.449Z,2.80
2023-03-16T09:43:07.147Z,4.07
2023-03-16T09:48:03.186Z,2.93
2023-03-16T09:50:47.105Z,3.17
2023-03-16T09:53:15.397Z,2.90
2023-03-16T09:55:43.114Z,2.60
2023-03-16T09:58:20.085Z,2.80
2023-03-16T10:01:02.713Z,2.63
2023-03-16T10:03:32.518Z,2.67
2023-03-16T10:06:00.917Z,2.50
2023-03-16T10:08:40.877Z,2.20
2023-03-16T10:11:16.319Z,2.53
2023-03-16T10:13:51.670Z,2.42
2023-03-16T10:16:19.958Z,3.08
2023-03-16T10:18:48.106Z,2.55
2023-03-16T10:21:16.879Z,2.40
2023-03-16T10:23:43.714Z,2.30
2023-03-16T10:26:13.213Z,2.47
2023-03-16T10:28:39.586Z,2.60
2023-03-16T10:31:05.996Z,3.00
2023-03-16T10:33:33.475Z,2.35
2023-03-16T10:36:15.724Z,2.28
2023-03-16T10:38:46.600Z,2.20
2023-03-16T10:41:19.158Z,2.42
2023-03-16T10:43:47.440Z,2.80
2023-03-16T10:46:15.134Z,2.20
2023-03-16T10:48:42.419Z,2.20
2023-03-16T10:51:12.385Z,2.08
2023-03-16T10:53:40.647Z,1.88
2023-03-16T10:56:19.944Z,1.60
2023-03-16T10:58:46.621Z,3.60
2023-03-16T11:01:18.114Z,2.80
2023-03-16T11:03:47.362Z,2.45
2023-03-16T11:06:24.725Z,1.90
2023-03-16T11:08:52.993Z,2.10
2023-03-16T11:11:24.404Z,2.00
2023-03-16T11:13:50.697Z,2.35
2023-03-16T11:16:37.026Z,2.17
2023-03-16T11:19:14.897Z,2.00
2023-03-16T11:21:50.964Z,2.35
2023-03-16T11:24:23.609Z,2.15
2023-03-16T11:26:54.313Z,2.63
2023-03-16T11:29:24.835Z,2.13
2023-03-16T11:31:53.926Z,2.40
2023-03-16T11:34:24.366Z,2.08
2023-03-16T11:36:53.465Z,2.25
2023-03-16T11:39:26.463Z,2.10
2023-03-16T11:41:58.728Z,3.10
2023-03-16T11:44:32.731Z,2.83
2023-03-16T11:47:17.460Z,3.33
2023-03-16T11:49:51.901Z,2.77
2023-03-16T11:52:33.265Z,3.42
2023-03-16T11:55:04.561Z,3.67
2023-03-16T11:57:40.082Z,2.80
2023-03-16T12:00:25.600Z,2.83
2023-03-16T12:03:17.152Z,3.10
2023-03-16T12:06:13.655Z,2.40
2023-03-16T12:08:57.467Z,2.10
2023-03-16T12:11:27.428Z,2.08
2023-03-16T12:14:05.977Z,2.55
2023-03-16T12:16:49.047Z,2.03
2023-03-16T12:19:24.832Z,2.28
2023-03-16T12:22:02.213Z,1.92
2023-03-16T12:24:30.521Z,2.65
2023-03-16T12:26:57.652Z,1.70
2023-03-16T12:29:32.238Z,2.13
2023-03-16T12:32:04.493Z,2.08
2023-03-16T12:34:38.773Z,2.17
2023-03-16T12:37:24.013Z,2.08
2023-03-16T12:39:53.296Z,2.92
2023-03-16T12:42:41.587Z,13.50
2023-03-16T12:45:12.845Z,2.13
2023-03-16T12:47:52.263Z,2.03
2023-03-16T12:50:19.773Z,2.40
2023-03-16T12:52:47.679Z,2.22
2023-03-16T12:55:15.819Z,1.70
2023-03-16T12:57:43.446Z,2.03
2023-03-16T13:00:10.417Z,1.83
2023-03-16T13:02:38.371Z,1.83
2023-03-16T13:05:10.566Z,2.55
2023-03-16T13:07:39.165Z,1.85
2023-03-16T13:10:10.702Z,2.00
2023-03-16T13:12:38.242Z,1.92
2023-03-16T13:15:20.319Z,1.63
2023-03-16T13:18:06.641Z,1.70
2023-03-16T13:20:34.708Z,2.10
2023-03-16T13:23:08.183Z,1.77
2023-03-16T13:25:42.806Z,1.77
2023-03-16T13:28:17.035Z,1.77
2023-03-16T13:30:48.595Z,1.60
2023-03-16T13:33:21.757Z,2.03
2023-03-16T13:35:49.641Z,1.50
2023-03-16T13:38:16.598Z,1.98
2023-03-16T13:40:46.579Z,2.00
2023-03-16T13:43:15.122Z,2.00
2023-03-16T13:45:42.115Z,1.70
2023-03-16T13:48:11.859Z,1.70
2023-03-16T13:50:41.149Z,1.80
2023-03-16T13:53:20.618Z,1.52
2023-03-16T13:55:47.377Z,1.70
2023-03-16T13:58:25.841Z,1.60
2023-03-16T14:00:56.804Z,1.52
2023-03-16T14:03:24.627Z,2.00
2023-03-16T14:05:50.950Z,2.25
2023-03-16T14:08:17.504Z,1.90
2023-03-16T14:10:45.188Z,2.03
2023-03-16T14:13:32.393Z,2.63
2023-03-16T14:16:03.032Z,2.55
2023-03-16T14:18:32.373Z,1.65
2023-03-16T14:20:58.783Z,1.83
2023-03-16T14:23:36.421Z,2.13
2023-03-16T14:26:04.133Z,1.70
2023-03-16T14:28:32.356Z,1.65
2023-03-16T14:31:06.429Z,1.75
2023-03-16T14:33:34.451Z,2.08
2023-03-16T14:36:07.780Z,1.88
2023-03-16T14:38:38.581Z,2.00
2023-03-16T14:41:08.744Z,1.70
2023-03-16T14:43:38.130Z,1.70
2023-03-16T14:46:05.670Z,1.65
2023-03-16T14:48:32.891Z,2.08
2023-03-16T14:51:01.565Z,1.50
2023-03-16T14:53:28.728Z,1.70
2023-03-16T14:55:55.786Z,1.67
2023-03-16T14:58:22.451Z,1.90
2023-03-16T15:00:53.727Z,1.77
2023-03-16T15:03:24.142Z,1.92
2023-03-16T15:05:51.466Z,1.75
2023-03-16T15:08:27.137Z,1.60
2023-03-16T15:10:55.004Z,2.47
2023-03-16T15:13:40.124Z,2.03
2023-03-16T15:16:07.599Z,2.10
2023-03-16T15:18:34.299Z,1.52
2023-03-16T15:21:01.972Z,1.75
2023-03-16T15:23:28.692Z,1.75
2023-03-16T15:26:00.151Z,2.30
2023-03-16T15:28:27.265Z,2.15
2023-03-16T15:30:54.874Z,1.90
2023-03-16T15:33:22.140Z,1.95
2023-03-16T15:35:49.866Z,1.38
2023-03-16T15:38:21.543Z,1.85
2023-03-16T15:40:48.336Z,1.73
2023-03-16T15:43:16.939Z,2.00
2023-03-16T15:45:43.783Z,1.67
2023-03-16T15:48:11.162Z,2.33
2023-03-16T15:50:39.009Z,1.92
2023-03-16T15:53:13.235Z,1.95
2023-03-16T15:55:46.306Z,1.70
2023-03-16T15:58:25.268Z,1.35
2023-03-16T16:00:54.696Z,1.80
2023-03-16T16:03:21.720Z,1.70
2023-03-16T16:05:48.224Z,2.67
2023-03-16T16:08:14.641Z,2.28
2023-03-16T16:10:41.506Z,1.70
2023-03-16T16:13:18.029Z,1.50
2023-03-16T16:15:45.212Z,2.30
2023-03-16T16:18:30.111Z,1.73
2023-03-16T16:20:56.773Z,2.42
2023-03-16T16:23:23.241Z,2.10
2023-03-16T16:25:51.302Z,1.85
2023-03-16T16:28:19.832Z,2.10
2023-03-16T16:30:46.372Z,1.70
2023-03-16T16:33:24.767Z,2.45
2023-03-16T16:35:51.898Z,1.75
2023-03-16T16:38:18.464Z,2.10
2023-03-16T16:40:46.253Z,2.28
2023-03-16T16:43:26.792Z,2.20
2023-03-16T16:45:53.648Z,1.92
2023-03-16T16:48:39.745Z,1.88
2023-03-16T16:51:09.810Z,2.05
2023-03-16T16:53:36.276Z,1.60
2023-03-16T16:56:02.863Z,2.40
2023-03-16T16:58:29.210Z,2.00
2023-03-16T17:00:56.459Z,1.95
2023-03-16T17:03:24.199Z,2.40
2023-03-16T17:05:51.940Z,2.83
2023-03-16T17:08:18.975Z,1.98
2023-03-16T17:10:45.444Z,1.63
2023-03-16T17:13:23.464Z,2.58
2023-03-16T17:15:49.785Z,2.25
2023-03-16T17:18:16.145Z,2.50
2023-03-16T17:20:42.603Z,1.98
2023-03-16T17:23:23.942Z,2.17
2023-03-16T17:25:50.568Z,1.65
2023-03-16T17:28:17.208Z,2.28
2023-03-16T17:30:45.149Z,1.90
2023-03-16T17:33:13.213Z,1.92
2023-03-16T17:35:41.011Z,1.65
2023-03-16T17:38:17.393Z,2.60
2023-03-16T17:40:43.804Z,1.73
2023-03-16T17:43:14.915Z,1.98
2023-03-16T17:45:41.648Z,1.50
2023-03-16T17:48:12.825Z,1.80
2023-03-16T17:50:39.870Z,2.45
2023-03-16T17:53:06.616Z,2.60
2023-03-16T17:55:33.913Z,1.92
2023-03-16T17:58:00.668Z,1.90
2023-03-16T18:00:29.651Z,1.85
2023-03-16T18:02:56.192Z,1.85
2023-03-16T18:05:24.300Z,1.83
2023-03-16T18:07:51.784Z,1.90
2023-03-16T18:10:19.576Z,1.88
2023-03-16T18:12:47.880Z,1.55
2023-03-16T18:15:16.150Z,2.00
2023-03-16T18:17:43.434Z,2.03
2023-03-16T18:20:31.085Z,1.58
2023-03-16T18:22:58.756Z,1.45
2023-03-16T18:25:28.312Z,1.50
2023-03-16T18:27:54.679Z,2.55
2023-03-16T18:30:21.577Z,1.85
2023-03-16T18:32:47.967Z,2.28
2023-03-16T18:35:15.530Z,2.33
2023-03-16T18:37:41.995Z,2.35
2023-03-16T18:40:12.809Z,1.73
2023-03-16T18:42:39.500Z,1.95
2023-03-16T18:45:06.163Z,2.40
2023-03-16T18:47:33.040Z,2.70
2023-03-16T18:50:00.071Z,2.50
2023-03-16T18:52:29.083Z,2.13
2023-03-16T18:54:55.904Z,2.15
2023-03-16T18:57:23.419Z,1.63
2023-03-16T18:59:50.491Z,1.83
2023-03-16T19:02:26.089Z,1.70
2023-03-16T19:04:52.845Z,2.15
2023-03-16T19:07:24.412Z,1.90
2023-03-16T19:09:51.072Z,1.73
2023-03-16T19:12:18.202Z,1.83
2023-03-16T19:14:44.710Z,2.28
2023-03-16T19:17:11.035Z,1.85
2023-03-16T19:19:37.392Z,2.03
2023-03-16T19:22:17.006Z,1.63
2023-03-16T19:24:46.337Z,1.80
2023-03-16T19:27:21.212Z,2.25
2023-03-16T19:29:48.409Z,2.05
2023-03-16T19:32:17.084Z,2.13
2023-03-16T19:34:43.758Z,2.13
2023-03-16T19:37:13.370Z,1.85
2023-03-16T19:39:39.681Z,2.03
2023-03-16T19:42:11.327Z,2.05
2023-03-16T19:44:37.684Z,2.75
2023-03-16T19:47:04.717Z,2.30
2023-03-16T19:49:31.077Z,2.28
2023-03-16T19:51:57.846Z,2.20
2023-03-16T19:54:28.309Z,2.15
2023-03-16T19:56:56.153Z,2.40
2023-03-16T19:59:22.927Z,4.13
2023-03-16T20:01:49.335Z,2.20
2023-03-16T20:04:20.918Z,1.90
2023-03-16T20:06:49.854Z,2.08
2023-03-16T20:09:18.262Z,2.08
2023-03-16T20:11:44.992Z,2.42
2023-03-16T20:14:18.510Z,2.20
2023-03-16T20:16:44.864Z,2.10
2023-03-16T20:19:12.565Z,2.33
2023-03-16T20:21:39.284Z,3.00
2023-03-16T20:24:14.028Z,2.55
2023-03-16T20:26:40.414Z,2.22
2023-03-16T20:29:15.799Z,3.08
2023-03-16T20:31:42.372Z,2.42
2023-03-16T20:34:18.535Z,3.50
2023-03-16T20:36:44.902Z,2.63
2023-03-16T20:39:11.225Z,2.00
2023-03-16T20:41:39.264Z,2.88
2023-03-16T20:44:06.087Z,2.08
2023-03-16T20:46:33.155Z,2.35
2023-03-16T20:49:03.520Z,3.13
2023-03-16T20:51:30.477Z,3.42
2023-03-16T20:53:57.044Z,2.38
2023-03-16T20:56:25.902Z,3.10
2023-03-16T20:58:54.762Z,2.38
2023-03-16T21:01:22.392Z,2.45
2023-03-16T21:03:54.296Z,2.15
2023-03-16T21:06:23.566Z,3.20
2023-03-16T21:08:54.016Z,2.20
2023-03-16T21:11:22.779Z,2.03
2023-03-16T21:13:49.498Z,1.95
2023-03-16T21:16:15.984Z,3.03
2023-03-16T21:18:42.368Z,2.80
2023-03-16T21:21:12.728Z,2.97
2023-03-16T21:23:39.050Z,2.97
2023-03-16T21:26:06.582Z,2.15
2023-03-16T21:28:34.521Z,2.30
2023-03-16T21:31:01.114Z,2.90
2023-03-16T21:33:30.116Z,2.35
2023-03-16T21:35:57.458Z,2.25
2023-03-16T21:38:26.548Z,2.70
2023-03-16T21:40:52.896Z,2.00
2023-03-16T21:43:19.435Z,2.95
2023-03-16T21:45:46.648Z,2.17
2023-03-16T21:48:15.534Z,2.70
2023-03-16T21:50:42.332Z,2.80
2023-03-16T21:53:18.437Z,2.50
2023-03-16T21:55:44.742Z,2.17
2023-03-16T21:58:11.140Z,3.25
2023-03-16T22:00:37.491Z,2.38
2023-03-16T22:03:04.530Z,1.58
2023-03-16T22:05:31.258Z,2.00
2023-03-16T22:07:58.641Z,2.60
2023-03-16T22:10:28.546Z,2.05
2023-03-16T22:12:55.716Z,3.30
2023-03-16T22:15:25.045Z,2.08
2023-03-16T22:17:55.408Z,2.47
2023-03-16T22:20:23.837Z,2.33
2023-03-16T22:22:51.293Z,2.83
2023-03-16T22:25:19.255Z,2.45
2023-03-16T22:27:45.844Z,2.92
2023-03-16T22:30:19.725Z,2.05
2023-03-16T22:32:47.102Z,1.90
2023-03-16T22:35:25.471Z,1.92
2023-03-16T22:37:52.719Z,2.88
2023-03-16T22:40:19.388Z,2.47
2023-03-16T22:42:45.716Z,1.50
2023-03-16T22:45:25.910Z,2.50
2023-03-16T22:47:52.710Z,2.15
2023-03-16T22:50:19.817Z,1.75
2023-03-16T22:52:47.359Z,2.40
2023-03-16T22:55:19.738Z,1.95
2023-03-16T22:57:46.686Z,1.70
2023-03-16T23:00:14.188Z,1.85
2023-03-16T23:02:40.790Z,2.38
2023-03-16T23:05:20.703Z,2.10
2023-03-16T23:07:47.101Z,2.03
2023-03-16T23:10:17.733Z,2.35
2023-03-16T23:12:44.464Z,2.33
2023-03-16T23:15:16.276Z,2.65
2023-03-16T23:17:42.643Z,3.17
2023-03-16T23:20:23.337Z,1.92
2023-03-16T23:22:49.756Z,2.05
2023-03-16T23:25:16.428Z,2.45
2023-03-16T23:27:42.965Z,2.90
2023-03-16T23:30:16.346Z,2.25
2023-03-16T23:32:43.430Z,3.22
2023-03-16T23:35:13.740Z,2.10
2023-03-16T23:37:40.116Z,2.42
2023-03-16T23:40:06.581Z,2.22
2023-03-16T23:42:32.916Z,2.92
2023-03-16T23:45:00.809Z,2.67
2023-03-16T23:47:27.119Z,2.30
2023-03-16T23:49:53.414Z,2.40
2023-03-16T23:52:19.924Z,1.67
2023-03-16T23:54:46.351Z,2.60
2023-03-16T23:57:12.662Z,2.47
2023-03-16T23:59:38.974Z,4.10
